Alba, Pennsylvania
Current Conditions -  °F | °C
As of 4:55 PM on Thursday 27 Nov 2014 (Local Time) from KN38 Reporting Station
Overcast Overcast  
Wind Chill: 24°   Ceiling: 6000
Heat Index: 30°   Visibility: 10mi
Dew Point: 19°   Wind: 6mph
Humidity: 64%   Direction: 330°NNW
Pressure: 30"   Gusts: NA
Location:  41.71°N, 76.83°W
Report Text: KN38 272155Z AUTO 33005KT 10SM OVC060 M01/M07 A3000 RMK AO2
Loading
Personal Weather Stations






























Interactive Weather Map New forecast layout! Learn more

10-Day Weather Forecast

Advertisements
Track Severe Weather on mobile